Time;durP1;ratioP1;P1;durP2;ratioP2;P2;SDS_P1;SDS_P2;PMS_P1;PMS_P2;Temp;Humidity;BMP_temperature;BMP_pressure;BME280_temperature;BME280_humidity;BME280_pressure;Samples;Min_cycle;Max_cycle;Signal;HPM_P1;HPM_P2
2021/06/10 00:03:42;;;;;;;10.63;9.73;;;21.00;39.90;;;;;;10424403;28;20229;-75
2021/06/10 00:08:45;;;;;;;11.70;10.80;;;20.90;39.80;;;;;;10432055;28;20244;-75
2021/06/10 00:13:48;;;;;;;11.53;10.53;;;20.90;39.50;;;;;;10427331;28;20238;-75
2021/06/10 00:18:53;;;;;;;21.90;10.97;;;20.80;39.50;;;;;;10436599;28;21204;-75
2021/06/10 00:23:56;;;;;;;13.80;10.87;;;20.80;39.90;;;;;;10436457;28;20236;-75
2021/06/10 00:28:58;;;;;;;12.17;10.97;;;20.60;39.50;;;;;;10431569;28;20237;-75
2021/06/10 00:34:03;;;;;;;11.50;10.63;;;20.50;39.70;;;;;;10436159;28;20594;-76
2021/06/10 00:39:08;;;;;;;9.90;9.10;;;20.40;40.40;;;;;;10429676;28;20229;-75
2021/06/10 00:44:11;;;;;;;9.17;8.47;;;20.40;40.50;;;;;;10425780;28;20616;-75
2021/06/10 00:49:15;;;;;;;9.93;9.13;;;20.30;40.20;;;;;;10440027;28;20712;-75
2021/06/10 00:54:18;;;;;;;11.07;10.07;;;20.30;40.20;;;;;;10429424;28;20252;-75
2021/06/10 00:59:21;;;;;;;9.50;8.70;;;20.30;40.00;;;;;;10432059;28;20232;-75
2021/06/10 01:04:25;;;;;;;11.07;10.07;;;20.20;40.00;;;;;;10439415;28;20696;-75
2021/06/10 01:09:34;;;;;;;10.43;9.53;;;20.10;40.90;;;;;;10430933;28;20243;-75
2021/06/10 01:14:43;;;;;;;15.93;9.77;;;19.90;41.00;;;;;;10422418;28;20236;-75
2021/06/10 01:20:07;;;;;;;9.20;8.50;;;19.90;41.10;;;;;;10429196;28;20237;-76
2021/06/10 01:25:19;;;;;;;10.27;9.47;;;19.80;41.30;;;;;;10434661;28;20221;-76
2021/06/10 01:30:26;;;;;;;11.57;10.43;;;19.80;41.40;;;;;;10436712;28;20240;-76
2021/06/10 01:35:36;;;;;;;16.80;10.37;;;19.70;41.10;;;;;;10432256;28;20252;-76
2021/06/10 01:40:40;;;;;;;13.73;9.90;;;19.60;41.50;;;;;;10421075;28;20705;-76
2021/06/10 01:45:48;;;;;;;15.90;7.97;;;19.50;41.10;;;;;;10429233;28;20599;-76
2021/06/10 01:50:54;;;;;;;9.03;8.00;;;19.40;41.80;;;;;;10434318;28;20248;-76
2021/06/10 01:56:00;;;;;;;7.43;6.83;;;19.40;41.70;;;;;;10428023;28;20233;-76
2021/06/10 02:01:06;;;;;;;12.23;7.20;;;19.30;41.70;;;;;;10436254;28;20232;-76
2021/06/10 02:06:09;;;;;;;10.50;6.47;;;19.30;41.90;;;;;;10429926;28;20258;-76
2021/06/10 02:11:12;;;;;;;13.93;7.03;;;19.20;41.40;;;;;;10425372;28;20240;-76
2021/06/10 02:16:18;;;;;;;7.60;6.83;;;19.10;41.00;;;;;;10435065;28;20229;-75
2021/06/10 02:21:21;;;;;;;9.10;8.17;;;19.00;41.80;;;;;;10427351;28;25332;-76
2021/06/10 02:26:23;;;;;;;9.23;8.50;;;18.80;41.30;;;;;;10436278;28;20243;-76
2021/06/10 02:31:32;;;;;;;8.73;8.13;;;18.80;41.50;;;;;;10429349;28;20795;-75
2021/06/10 02:36:38;;;;;;;7.90;7.40;;;18.70;42.20;;;;;;10433991;28;20652;-75
2021/06/10 02:41:47;;;;;;;12.67;7.30;;;18.60;42.30;;;;;;10423366;28;20234;-77
2021/06/10 02:46:51;;;;;;;6.87;6.47;;;18.60;42.60;;;;;;10436954;28;20221;-75
2021/06/10 02:51:54;;;;;;;14.10;7.13;;;18.50;42.40;;;;;;10429904;28;20287;-75
2021/06/10 02:56:59;;;;;;;8.07;7.27;;;18.50;42.20;;;;;;10442040;28;20236;-75
2021/06/10 03:02:04;;;;;;;8.00;7.23;;;18.50;42.30;;;;;;10439591;28;20257;-76
2021/06/10 03:07:08;;;;;;;7.00;6.50;;;18.40;43.00;;;;;;10440529;28;20222;-75
2021/06/10 03:12:12;;;;;;;7.50;7.00;;;18.40;42.70;;;;;;10433828;28;20609;-75
2021/06/10 03:17:18;;;;;;;8.87;8.17;;;18.30;42.90;;;;;;10430914;28;20235;-75
2021/06/10 03:22:21;;;;;;;15.73;8.53;;;18.40;43.90;;;;;;10431936;28;20237;-75
2021/06/10 03:27:25;;;;;;;9.93;9.03;;;18.40;43.10;;;;;;10436731;28;20240;-77
2021/06/10 03:32:30;;;;;;;11.50;9.20;;;18.40;43.50;;;;;;10426340;28;20608;-77
2021/06/10 03:37:33;;;;;;;22.10;10.17;;;18.40;44.00;;;;;;10436674;28;20224;-77
2021/06/10 03:42:37;;;;;;;11.00;9.90;;;18.40;43.60;;;;;;10433114;28;20311;-76
2021/06/10 03:47:44;;;;;;;23.87;9.93;;;18.40;43.90;;;;;;10436637;28;20221;-75
2021/06/10 03:52:48;;;;;;;39.30;10.10;;;18.40;45.00;;;;;;10433626;28;20237;-77
2021/06/10 03:57:51;;;;;;;36.47;10.80;;;18.40;44.60;;;;;;10429396;28;20236;-75
2021/06/10 04:02:58;;;;;;;34.50;10.63;;;18.40;44.20;;;;;;10435565;28;20240;-75
2021/06/10 04:08:01;;;;;;;12.27;10.97;;;18.30;45.00;;;;;;10429978;28;20236;-77
2021/06/10 04:13:04;;;;;;;20.07;11.43;;;18.30;44.50;;;;;;10431674;28;20228;-76
2021/06/10 04:18:08;;;;;;;13.00;11.80;;;18.40;44.80;;;;;;10436779;28;20224;-75
2021/06/10 04:23:11;;;;;;;28.60;11.47;;;18.40;45.60;;;;;;10436001;28;20238;-75
2021/06/10 04:28:13;;;;;;;31.70;11.87;;;18.50;45.10;;;;;;10433493;28;20225;-75
2021/06/10 04:33:17;;;;;;;23.30;12.20;;;18.50;45.00;;;;;;10434540;28;20606;-77
2021/06/10 04:38:20;;;;;;;18.67;12.10;;;18.60;45.90;;;;;;10436975;28;20894;-75
2021/06/10 04:43:23;;;;;;;27.03;12.47;;;18.60;45.60;;;;;;10433488;28;20237;-77
2021/06/10 04:48:27;;;;;;;20.03;13.17;;;18.60;45.60;;;;;;10439527;28;20228;-77
2021/06/10 04:53:30;;;;;;;42.37;13.53;;;18.60;46.70;;;;;;10437731;28;20779;-77
2021/06/10 04:58:33;;;;;;;42.83;12.57;;;18.60;45.90;;;;;;10432723;28;20720;-77
2021/06/10 05:03:37;;;;;;;35.60;13.47;;;18.60;45.90;;;;;;10435736;28;20312;-79
2021/06/10 05:08:40;;;;;;;35.53;13.80;;;18.70;47.00;;;;;;10435802;28;20228;-80
2021/06/10 05:13:43;;;;;;;20.90;14.43;;;18.70;46.20;;;;;;10437119;28;20233;-79
2021/06/10 05:18:47;;;;;;;15.77;14.10;;;18.70;46.30;;;;;;10415867;28;20227;-78
2021/06/10 05:23:50;;;;;;;17.23;15.73;;;18.70;47.60;;;;;;10437084;28;20236;-75
2021/06/10 05:28:53;;;;;;;20.03;18.10;;;18.70;46.80;;;;;;10433509;28;20724;-77
2021/06/10 05:33:57;;;;;;;17.40;15.87;;;18.70;47.80;;;;;;10429594;28;20232;-80
2021/06/10 05:39:00;;;;;;;19.80;17.23;;;18.70;47.60;;;;;;10432590;28;20393;-78
2021/06/10 05:44:03;;;;;;;18.70;17.10;;;18.70;47.60;;;;;;10433991;28;20592;-79
2021/06/10 05:49:07;;;;;;;19.10;17.50;;;18.80;47.70;;;;;;10432815;28;20252;-81
2021/06/10 05:54:10;;;;;;;18.50;16.87;;;18.80;48.10;;;;;;10427522;28;20236;-77
2021/06/10 05:59:13;;;;;;;20.77;18.77;;;18.90;47.80;;;;;;10431244;28;20276;-76
2021/06/10 06:04:17;;;;;;;21.87;19.50;;;19.00;48.60;;;;;;10432957;28;20259;-79
2021/06/10 06:09:21;;;;;;;21.50;19.57;;;19.10;48.10;;;;;;10429027;28;20243;-80
2021/06/10 06:14:27;;;;;;;21.60;19.70;;;19.20;48.00;;;;;;10428726;28;21328;-81
2021/06/10 06:19:31;;;;;;;23.80;21.70;;;19.20;48.00;;;;;;10440984;28;20708;-79
2021/06/10 06:24:34;;;;;;;23.97;21.77;;;19.30;48.70;;;;;;10432033;28;20565;-79
2021/06/10 06:29:38;;;;;;;21.13;19.17;;;19.40;48.20;;;;;;10429939;28;20283;-79
2021/06/10 06:34:42;;;;;;;24.73;22.53;;;19.50;48.30;;;;;;10442116;28;20237;-76
2021/06/10 06:39:44;;;;;;;26.23;23.83;;;19.60;48.60;;;;;;10436528;28;20235;-77
2021/06/10 06:44:47;;;;;;;26.43;24.03;;;19.80;48.60;;;;;;10437506;28;20276;-77
2021/06/10 06:55:02;;;;;;;27.20;24.70;;;19.90;49.60;;;;;;10316804;28;20239;-76
2021/06/10 07:00:07;;;;;;;30.40;27.63;;;20.00;48.70;;;;;;10318732;28;20227;-77
2021/06/10 07:05:12;;;;;;;31.13;28.23;;;20.00;48.70;;;;;;10326059;28;20242;-79
2021/06/10 07:10:15;;;;;;;29.67;26.77;;;20.10;48.80;;;;;;10285110;28;20231;-78
2021/06/10 07:15:18;;;;;;;33.63;30.23;;;20.30;49.00;;;;;;10295778;28;20239;-78
2021/06/10 07:20:23;;;;;;;30.43;27.67;;;20.40;49.00;;;;;;10297628;28;20602;-76
2021/06/10 07:25:29;;;;;;;33.87;30.53;;;20.40;49.10;;;;;;10285338;28;20231;-78
2021/06/10 07:30:32;;;;;;;33.60;30.33;;;20.60;50.00;;;;;;10282905;28;20229;-75
2021/06/10 07:35:36;;;;;;;37.30;33.93;;;20.60;49.30;;;;;;10318524;28;20236;-78
2021/06/10 07:40:40;;;;;;;36.43;33.07;;;20.70;49.40;;;;;;10282221;28;20235;-76
2021/06/10 07:45:43;;;;;;;38.33;34.87;;;20.90;49.50;;;;;;10280217;28;20704;-79
2021/06/10 07:50:47;;;;;;;39.33;35.73;;;21.10;49.20;;;;;;10302835;28;20247;-77
2021/06/10 07:55:54;;;;;;;35.37;32.10;;;21.30;49.60;;;;;;10313299;28;20741;-77
2021/06/10 08:00:57;;;;;;;37.00;33.73;;;21.40;49.30;;;;;;10306069;28;20231;-76
2021/06/10 08:06:03;;;;;;;36.37;33.07;;;21.60;49.40;;;;;;10296563;28;20267;-78
2021/06/10 08:11:07;;;;;;;34.30;31.30;;;21.80;49.60;;;;;;10290547;28;20601;-76
2021/06/10 08:16:10;;;;;;;34.13;31.13;;;22.10;49.10;;;;;;10294456;28;20560;-77
2021/06/10 08:21:14;;;;;;;31.93;29.10;;;22.30;48.70;;;;;;10297183;28;20606;-74
2021/06/10 08:26:17;;;;;;;32.07;29.40;;;22.60;48.60;;;;;;10289104;28;20231;-77
2021/06/10 08:31:20;;;;;;;31.13;28.33;;;22.90;48.00;;;;;;10305864;28;20234;-78
2021/06/10 08:36:24;;;;;;;33.87;30.97;;;23.10;47.60;;;;;;10296157;28;20254;-78
2021/06/10 08:41:28;;;;;;;29.83;27.40;;;23.30;46.80;;;;;;10282948;28;20236;-76
2021/06/10 08:46:33;;;;;;;26.63;24.53;;;23.50;46.80;;;;;;10306474;28;20250;-75
2021/06/10 08:51:37;;;;;;;26.57;24.43;;;23.70;46.60;;;;;;10303396;28;20238;-75
2021/06/10 08:56:43;;;;;;;23.83;21.97;;;23.80;46.10;;;;;;10303810;28;20322;-77
2021/06/10 09:01:46;;;;;;;21.97;20.13;;;24.00;45.60;;;;;;10298290;28;20241;-77
2021/06/10 09:06:52;;;;;;;19.90;18.30;;;24.10;45.70;;;;;;10308286;28;20235;-75
2021/06/10 09:11:57;;;;;;;21.67;19.97;;;24.30;45.00;;;;;;10285767;28;20247;-67
2021/06/10 09:17:03;;;;;;;17.80;16.30;;;24.60;44.60;;;;;;10286991;28;20695;-75
2021/06/10 09:22:07;;;;;;;17.97;16.67;;;24.90;45.10;;;;;;10311117;28;20241;-77
2021/06/10 09:27:12;;;;;;;16.17;14.87;;;25.20;44.10;;;;;;10311690;28;20239;-76
2021/06/10 09:32:19;;;;;;;14.97;13.80;;;25.40;43.80;;;;;;10283947;28;20258;-76
2021/06/10 09:37:33;;;;;;;17.23;15.93;;;25.60;42.30;;;;;;10282958;28;20249;-74
2021/06/10 09:42:38;;;;;;;14.03;12.93;;;25.70;41.30;;;;;;10294915;28;20243;-76
2021/06/10 09:47:43;;;;;;;12.07;11.17;;;25.70;41.30;;;;;;10305333;28;20231;-74
2021/06/10 09:52:50;;;;;;;11.70;10.87;;;25.80;41.40;;;;;;10285524;28;20714;-75
2021/06/10 09:57:55;;;;;;;12.67;11.77;;;25.90;40.20;;;;;;10297203;28;20235;-75
2021/06/10 10:02:58;;;;;;;12.50;11.60;;;26.10;41.60;;;;;;10298114;28;20602;-75
2021/06/10 10:08:02;;;;;;;10.03;9.20;;;26.30;40.90;;;;;;10269696;28;20255;-75
2021/06/10 10:13:09;;;;;;;9.30;8.60;;;26.50;38.80;;;;;;10272352;28;20241;-75
2021/06/10 10:18:12;;;;;;;7.43;6.93;;;26.60;39.30;;;;;;10273669;28;20259;-75
2021/06/10 10:23:16;;;;;;;7.70;7.20;;;26.80;39.30;;;;;;10277608;28;20263;-76
2021/06/10 10:28:19;;;;;;;8.07;7.47;;;27.00;37.10;;;;;;10271885;28;20233;-75
2021/06/10 10:33:23;;;;;;;8.10;7.50;;;27.00;37.40;;;;;;10274390;28;20236;-75
2021/06/10 10:38:33;;;;;;;7.30;6.80;;;27.10;36.20;;;;;;10278187;28;20769;-76
2021/06/10 10:43:36;;;;;;;7.70;7.10;;;27.20;34.90;;;;;;10277170;28;20240;-74
2021/06/10 10:48:43;;;;;;;8.13;7.50;;;27.30;37.60;;;;;;10281977;28;20231;-75
2021/06/10 10:53:53;;;;;;;7.90;7.30;;;27.40;34.80;;;;;;10285522;28;20716;-77
2021/06/10 10:59:10;;;;;;;8.33;7.73;;;27.50;35.20;;;;;;10297996;28;20231;-75
2021/06/10 11:04:50;;;;;;;9.13;8.43;;;27.50;34.70;;;;;;10288637;28;20235;-77
2021/06/10 11:09:53;;;;;;;9.00;8.40;;;27.50;35.00;;;;;;10315671;28;20235;-76
2021/06/10 11:15:00;;;;;;;8.60;8.00;;;27.70;35.50;;;;;;10312163;28;20239;-75
2021/06/10 11:20:06;;;;;;;8.07;7.47;;;27.70;35.70;;;;;;10320128;28;20242;-74
2021/06/10 11:25:11;;;;;;;7.27;6.70;;;27.90;34.40;;;;;;10306975;28;20726;-75
2021/06/10 11:30:17;;;;;;;7.03;6.53;;;28.10;34.10;;;;;;10310609;28;20236;-72
2021/06/10 11:35:32;;;;;;;7.47;6.97;;;28.20;33.10;;;;;;10304099;28;20238;-74
2021/06/10 11:40:35;;;;;;;7.10;6.70;;;28.30;32.50;;;;;;10312965;28;20239;-74
2021/06/10 11:45:39;;;;;;;7.50;7.00;;;28.50;33.70;;;;;;10309519;28;20604;-74
2021/06/10 11:50:47;;;;;;;7.27;6.77;;;28.60;32.80;;;;;;10313452;28;20272;-74
2021/06/10 11:55:50;;;;;;;6.43;6.00;;;28.70;30.60;;;;;;10310247;28;20242;-74
2021/06/10 12:00:54;;;;;;;6.40;5.93;;;28.70;31.30;;;;;;10325150;28;20937;-77
2021/06/10 12:05:58;;;;;;;6.33;5.83;;;28.60;30.80;;;;;;10330885;28;20781;-76
2021/06/10 12:11:04;;;;;;;6.10;5.70;;;28.60;30.90;;;;;;10330595;28;20729;-75
2021/06/10 12:16:08;;;;;;;6.00;5.57;;;28.50;30.60;;;;;;10314154;28;20227;-78
2021/06/10 12:21:14;;;;;;;5.37;5.07;;;28.60;30.60;;;;;;10321469;28;20239;-77
2021/06/10 12:26:18;;;;;;;6.20;5.70;;;28.70;29.80;;;;;;10320194;28;20239;-77
2021/06/10 12:31:23;;;;;;;6.07;5.60;;;28.90;30.00;;;;;;10320327;28;20235;-76
2021/06/10 12:36:35;;;;;;;5.97;5.57;;;28.90;30.00;;;;;;10315190;28;20235;-75
2021/06/10 12:41:41;;;;;;;5.30;5.00;;;28.90;28.60;;;;;;10308643;28;20237;-75
2021/06/10 12:46:48;;;;;;;5.00;4.70;;;28.90;29.10;;;;;;10309873;28;20242;-75
2021/06/10 12:51:54;;;;;;;5.63;4.57;;;29.00;27.40;;;;;;10315099;28;20227;-74
2021/06/10 12:56:58;;;;;;;4.73;4.43;;;29.10;27.50;;;;;;10311709;28;20704;-75
2021/06/10 13:02:03;;;;;;;4.57;4.27;;;29.10;27.50;;;;;;10311795;28;20237;-74
2021/06/10 13:07:09;;;;;;;4.30;4.00;;;29.10;28.40;;;;;;10315355;28;20710;-75
2021/06/10 13:12:17;;;;;;;4.10;3.80;;;29.20;27.60;;;;;;10318836;28;20227;-76
2021/06/10 13:17:20;;;;;;;4.00;3.80;;;29.30;27.40;;;;;;10314094;28;20273;-76
2021/06/10 13:22:24;;;;;;;4.10;3.80;;;29.40;27.90;;;;;;10321256;28;20236;-76
2021/06/10 13:27:27;;;;;;;3.60;3.40;;;29.40;26.60;;;;;;10316468;28;20242;-76
2021/06/10 13:32:31;;;;;;;3.60;3.30;;;29.50;27.50;;;;;;10306934;28;20237;-76
2021/06/10 13:37:36;;;;;;;3.80;3.60;;;29.60;26.40;;;;;;10306516;28;20259;-77
2021/06/10 13:42:38;;;;;;;3.77;3.57;;;29.60;24.40;;;;;;10308832;28;20235;-77
2021/06/10 13:47:41;;;;;;;3.77;3.57;;;29.60;25.80;;;;;;10311479;28;20235;-73
2021/06/10 13:52:45;;;;;;;3.40;3.20;;;29.60;25.60;;;;;;10306915;28;20246;-76
2021/06/10 13:57:48;;;;;;;3.30;3.10;;;29.70;24.90;;;;;;10308363;28;20274;-75
2021/06/10 14:02:52;;;;;;;3.70;3.50;;;29.70;25.30;;;;;;10303217;28;20235;-77
2021/06/10 14:07:56;;;;;;;3.70;3.50;;;29.70;24.70;;;;;;10312792;28;20309;-75
2021/06/10 14:13:00;;;;;;;3.87;3.63;;;29.70;24.50;;;;;;10312475;28;20236;-75
2021/06/10 14:18:03;;;;;;;3.70;3.50;;;29.70;24.30;;;;;;10319046;28;20226;-76
2021/06/10 14:23:08;;;;;;;3.83;3.63;;;29.70;24.00;;;;;;10310425;28;20490;-74
2021/06/10 14:28:11;;;;;;;3.70;3.50;;;29.70;23.40;;;;;;10314514;28;20245;-74
2021/06/10 14:33:14;;;;;;;3.90;3.60;;;29.60;24.20;;;;;;10316644;28;20936;-75
2021/06/10 14:38:18;;;;;;;3.80;3.50;;;29.60;23.90;;;;;;10312912;28;20311;-76
2021/06/10 14:43:21;;;;;;;3.87;3.57;;;29.60;23.60;;;;;;10319598;28;20253;-77
2021/06/10 14:48:24;;;;;;;3.97;3.67;;;29.60;24.30;;;;;;10313241;28;20231;-75
2021/06/10 14:53:28;;;;;;;4.90;4.17;;;29.60;24.30;;;;;;10317082;28;20239;-74
2021/06/10 14:58:31;;;;;;;4.30;4.10;;;29.60;24.40;;;;;;10324685;28;20314;-76
2021/06/10 15:03:33;;;;;;;4.00;3.73;;;29.60;24.50;;;;;;10314253;28;20232;-75
2021/06/10 15:08:38;;;;;;;4.27;4.00;;;29.50;24.60;;;;;;10323274;28;20262;-76
2021/06/10 15:13:40;;;;;;;4.30;4.00;;;29.40;24.20;;;;;;10319046;28;20235;-75
2021/06/10 15:18:43;;;;;;;5.60;5.20;;;29.40;24.40;;;;;;10322268;28;20721;-74
2021/06/10 15:23:49;;;;;;;4.67;4.37;;;29.20;24.50;;;;;;10331460;28;20234;-74
2021/06/10 15:28:51;;;;;;;4.07;3.87;;;29.10;24.10;;;;;;10326706;28;20228;-77
2021/06/10 15:33:54;;;;;;;4.27;3.97;;;29.00;25.40;;;;;;10312065;28;20231;-76
2021/06/10 15:38:58;;;;;;;3.67;3.47;;;28.90;25.10;;;;;;10323179;28;20242;-76
2021/06/10 15:44:01;;;;;;;3.80;3.50;;;28.80;24.40;;;;;;10320052;28;20239;-75
2021/06/10 15:49:04;;;;;;;4.17;3.20;;;28.70;24.60;;;;;;10318706;28;20314;-74
2021/06/10 15:54:09;;;;;;;3.50;3.30;;;28.40;24.80;;;;;;10303923;28;20602;-75
2021/06/10 15:59:11;;;;;;;3.53;3.23;;;28.30;25.10;;;;;;10310816;28;20228;-76
2021/06/10 16:04:14;;;;;;;3.20;2.90;;;28.10;24.90;;;;;;10308300;28;20231;-75
2021/06/10 16:09:20;;;;;;;2.93;2.73;;;28.00;24.90;;;;;;10311498;28;20227;-76
2021/06/10 16:14:22;;;;;;;2.50;2.40;;;27.90;25.00;;;;;;10309060;28;20242;-76
2021/06/10 16:19:25;;;;;;;2.60;2.50;;;27.90;25.10;;;;;;10306101;28;20738;-75
2021/06/10 16:24:30;;;;;;;2.80;2.07;;;27.80;24.50;;;;;;10307527;28;20234;-75
2021/06/10 16:29:34;;;;;;;1.90;1.80;;;27.80;23.40;;;;;;10311695;28;20301;-75
2021/06/10 16:34:37;;;;;;;2.10;1.90;;;27.70;23.90;;;;;;10318645;28;20297;-76
2021/06/10 16:39:41;;;;;;;2.53;2.33;;;27.60;24.00;;;;;;10304466;28;20644;-75
2021/06/10 16:44:44;;;;;;;4.23;3.83;;;27.60;24.30;;;;;;10305311;28;20242;-75
2021/06/10 16:49:47;;;;;;;3.80;3.50;;;27.40;25.30;;;;;;10309267;28;21047;-74
2021/06/10 16:54:51;;;;;;;2.90;2.80;;;27.10;25.30;;;;;;10307992;28;20238;-75
2021/06/10 17:00:00;;;;;;;4.33;2.70;;;26.80;25.80;;;;;;10310704;28;20283;-75
2021/06/10 17:05:03;;;;;;;3.10;2.80;;;26.40;26.10;;;;;;10305298;28;20237;-75
2021/06/10 17:10:08;;;;;;;3.03;2.83;;;26.10;26.40;;;;;;10301272;28;20597;-74
2021/06/10 17:15:12;;;;;;;2.90;2.70;;;25.90;26.70;;;;;;10305584;28;20235;-75
2021/06/10 17:20:17;;;;;;;3.00;2.80;;;25.70;27.10;;;;;;10306816;28;20235;-75
2021/06/10 17:25:21;;;;;;;2.40;2.30;;;25.50;27.40;;;;;;10303998;28;20235;-74
2021/06/10 17:30:24;;;;;;;3.83;2.33;;;25.40;27.80;;;;;;10306307;28;20702;-75
2021/06/10 17:35:26;;;;;;;2.90;2.70;;;25.20;27.70;;;;;;10302288;28;20241;-75
2021/06/10 17:40:31;;;;;;;2.83;2.63;;;25.10;27.80;;;;;;10307417;28;20230;-75
2021/06/10 17:45:34;;;;;;;3.20;3.00;;;25.00;28.50;;;;;;10301563;28;20246;-75
2021/06/10 17:50:37;;;;;;;3.00;2.80;;;24.90;28.30;;;;;;10297912;28;20227;-75
2021/06/10 17:55:42;;;;;;;3.10;2.90;;;24.80;28.50;;;;;;10296352;28;20234;-75
2021/06/10 18:00:44;;;;;;;3.10;2.90;;;24.70;28.50;;;;;;10304024;28;20711;-75
2021/06/10 18:05:49;;;;;;;3.43;3.20;;;24.60;28.40;;;;;;10308801;28;20262;-74
2021/06/10 18:10:53;;;;;;;4.73;3.00;;;24.50;28.40;;;;;;10302428;28;20253;-75
2021/06/10 18:15:56;;;;;;;3.40;3.00;;;24.50;28.70;;;;;;10301653;28;20246;-75
2021/06/10 18:20:59;;;;;;;3.50;3.20;;;24.40;28.30;;;;;;10307646;28;20608;-75
2021/06/10 18:26:03;;;;;;;2.83;2.63;;;24.30;28.30;;;;;;10301695;28;20236;-74
2021/06/10 18:31:05;;;;;;;3.20;3.00;;;24.20;29.00;;;;;;10309118;28;20723;-73
2021/06/10 18:36:08;;;;;;;2.90;2.70;;;24.10;28.50;;;;;;10300311;28;20278;-74
2021/06/10 18:41:13;;;;;;;2.40;2.30;;;24.00;28.40;;;;;;10301034;28;20242;-74
2021/06/10 18:46:16;;;;;;;2.70;2.50;;;23.90;28.70;;;;;;10302817;28;20235;-74
2021/06/10 18:51:19;;;;;;;2.80;2.60;;;23.90;28.80;;;;;;10308244;28;20614;-73
2021/06/10 18:56:23;;;;;;;2.97;2.77;;;23.80;28.90;;;;;;10305982;28;20715;-73
2021/06/10 19:01:26;;;;;;;2.50;2.40;;;23.80;29.10;;;;;;10302360;28;20246;-74
2021/06/10 19:06:29;;;;;;;2.47;2.37;;;23.80;29.10;;;;;;10301488;28;20238;-73
2021/06/10 19:11:33;;;;;;;2.93;2.73;;;23.70;29.10;;;;;;10300814;28;20630;-74
2021/06/10 19:16:37;;;;;;;2.80;2.60;;;23.70;29.40;;;;;;10303637;28;20239;-74
2021/06/10 19:21:40;;;;;;;2.53;2.43;;;23.70;29.50;;;;;;10304621;28;20235;-74
2021/06/10 19:26:44;;;;;;;3.00;2.80;;;23.70;29.30;;;;;;10303913;28;20319;-74
2021/06/10 19:31:47;;;;;;;3.00;2.80;;;23.60;29.70;;;;;;10302599;28;20314;-75
2021/06/10 19:36:49;;;;;;;3.10;2.90;;;23.50;29.60;;;;;;10307878;28;20241;-75
2021/06/10 19:41:54;;;;;;;3.40;3.10;;;23.30;29.80;;;;;;10306843;28;20351;-74
2021/06/10 19:46:57;;;;;;;2.63;2.40;;;23.10;30.10;;;;;;10313127;28;20227;-75
2021/06/10 19:52:00;;;;;;;3.23;3.03;;;22.90;30.00;;;;;;10307140;28;20228;-75
2021/06/10 19:57:05;;;;;;;3.40;3.20;;;22.80;30.20;;;;;;10309810;28;20245;-77
2021/06/10 20:02:08;;;;;;;3.60;3.30;;;22.80;30.90;;;;;;10308736;28;20242;-74
2021/06/10 20:07:11;;;;;;;3.37;3.07;;;22.70;30.90;;;;;;10310416;28;20295;-75
2021/06/10 20:12:16;;;;;;;3.17;2.97;;;22.70;30.90;;;;;;10310244;28;20629;-75
2021/06/10 20:17:19;;;;;;;3.20;2.90;;;22.60;31.40;;;;;;10313071;28;20262;-75
2021/06/10 20:22:23;;;;;;;3.33;3.03;;;22.50;31.10;;;;;;10311984;28;20319;-74
2021/06/10 20:32:48;;;;;;;3.27;3.07;;;22.30;31.60;;;;;;10308836;28;20714;-75
2021/06/10 20:37:51;;;;;;;3.00;2.80;;;22.30;31.50;;;;;;10313993;28;20231;-75
2021/06/10 20:42:57;;;;;;;2.90;2.70;;;22.30;31.70;;;;;;10307527;28;20251;-75
2021/06/10 20:48:00;;;;;;;3.40;3.20;;;22.30;32.20;;;;;;10307210;28;20662;-75
2021/06/10 20:53:03;;;;;;;3.27;3.07;;;22.40;31.80;;;;;;10313004;28;20222;-75
2021/06/10 20:58:07;;;;;;;3.10;2.90;;;22.40;31.60;;;;;;10305359;28;20243;-76
2021/06/10 21:03:09;;;;;;;3.13;2.93;;;22.50;32.00;;;;;;10326859;28;20712;-77
2021/06/10 21:08:12;;;;;;;3.13;2.93;;;22.40;32.00;;;;;;10328351;28;20261;-77
2021/06/10 21:13:16;;;;;;;2.97;2.77;;;22.50;32.20;;;;;;10333070;28;20223;-76
2021/06/10 21:18:19;;;;;;;3.10;2.90;;;22.50;32.50;;;;;;10331095;28;20222;-76
2021/06/10 21:23:21;;;;;;;3.10;2.90;;;22.50;32.30;;;;;;10333436;28;20692;-77
2021/06/10 21:28:26;;;;;;;2.80;2.60;;;22.60;32.50;;;;;;10325625;28;20239;-76
2021/06/10 21:33:28;;;;;;;3.20;3.00;;;22.70;32.90;;;;;;10331026;28;20231;-77
2021/06/10 21:38:31;;;;;;;3.30;3.10;;;22.70;32.40;;;;;;10330355;28;20242;-77
2021/06/10 21:43:35;;;;;;;3.10;2.90;;;22.70;32.60;;;;;;10332514;28;20237;-76
2021/06/10 21:48:38;;;;;;;3.20;3.00;;;22.70;33.00;;;;;;10330169;28;20233;-77
2021/06/10 21:53:41;;;;;;;3.00;2.80;;;22.70;32.70;;;;;;10318667;28;20231;-78
2021/06/10 21:58:45;;;;;;;3.10;2.73;;;22.70;32.90;;;;;;10321808;28;20231;-77
2021/06/10 22:03:48;;;;;;;3.60;2.90;;;22.70;33.90;;;;;;10329320;28;20235;-76
2021/06/10 22:08:50;;;;;;;3.43;3.23;;;22.60;33.00;;;;;;10341993;28;20231;-77
2021/06/10 22:13:54;;;;;;;3.50;3.20;;;22.60;33.00;;;;;;10329060;28;20254;-77
2021/06/10 22:18:57;;;;;;;3.50;3.30;;;22.50;33.40;;;;;;10318795;28;20234;-77
2021/06/10 22:24:00;;;;;;;3.13;2.93;;;22.50;33.20;;;;;;10319707;28;20729;-76
2021/06/10 22:29:05;;;;;;;2.90;2.70;;;22.40;33.10;;;;;;10290707;28;20286;-76
2021/06/10 22:34:10;;;;;;;4.33;3.23;;;22.40;33.60;;;;;;10294502;28;20326;-76
2021/06/10 22:39:16;;;;;;;3.73;3.43;;;22.40;33.40;;;;;;10294007;28;20236;-76
2021/06/10 22:44:20;;;;;;;2.90;2.70;;;22.40;34.10;;;;;;10315795;28;20239;-76
2021/06/10 22:49:25;;;;;;;3.30;3.10;;;22.40;33.70;;;;;;10316091;28;20246;-77
2021/06/10 22:54:27;;;;;;;3.37;3.17;;;22.30;34.20;;;;;;10297616;28;20230;-76
2021/06/10 22:59:31;;;;;;;4.70;3.50;;;22.30;33.50;;;;;;10320447;28;20736;-77
2021/06/10 23:04:34;;;;;;;3.50;3.30;;;22.20;33.80;;;;;;10323980;28;20231;-77
2021/06/10 23:09:37;;;;;;;3.23;3.03;;;22.20;33.60;;;;;;10315570;28;20235;-77
2021/06/10 23:14:41;;;;;;;3.50;3.20;;;22.10;33.80;;;;;;10318726;28;20238;-78
2021/06/10 23:19:44;;;;;;;3.37;3.17;;;22.10;34.00;;;;;;10315715;28;20602;-77
2021/06/10 23:24:46;;;;;;;3.03;2.83;;;22.10;33.80;;;;;;10315686;28;20242;-77
2021/06/10 23:29:50;;;;;;;3.47;3.10;;;22.00;33.70;;;;;;10304597;28;20227;-77
2021/06/10 23:34:53;;;;;;;3.40;3.20;;;21.90;34.20;;;;;;10334811;28;20234;-76
2021/06/10 23:39:56;;;;;;;3.63;3.33;;;21.90;33.90;;;;;;10306430;28;20231;-76
2021/06/10 23:45:00;;;;;;;3.30;3.10;;;21.80;34.10;;;;;;10343962;28;20665;-77
2021/06/10 23:50:03;;;;;;;3.83;3.47;;;21.70;34.50;;;;;;10323023;28;20220;-76
2021/06/10 23:55:07;;;;;;;3.37;3.13;;;21.70;34.40;;;;;;10339915;28;20702;-76
